sensor_id;sensor_type;location;lat;lon;timestamp;P1;durP1;ratioP1;P2;durP2;ratioP2
12832;SDS011;6483;51.310;4.462;2022-12-04T00:01:15;65.17;;;29.57;;
12832;SDS011;6483;51.310;4.462;2022-12-04T00:03:46;67.23;;;29.93;;
12832;SDS011;6483;51.310;4.462;2022-12-04T00:06:16;63.17;;;28.73;;
12832;SDS011;6483;51.310;4.462;2022-12-04T00:08:44;70.87;;;32.90;;
12832;SDS011;6483;51.310;4.462;2022-12-04T00:11:12;66.40;;;30.13;;
12832;SDS011;6483;51.310;4.462;2022-12-04T00:13:40;75.33;;;31.03;;
12832;SDS011;6483;51.310;4.462;2022-12-04T00:16:11;61.13;;;28.53;;
12832;SDS011;6483;51.310;4.462;2022-12-04T00:18:39;65.10;;;29.47;;
12832;SDS011;6483;51.310;4.462;2022-12-04T00:21:07;66.53;;;30.40;;
12832;SDS011;6483;51.310;4.462;2022-12-04T00:23:35;65.17;;;29.37;;
12832;SDS011;6483;51.310;4.462;2022-12-04T00:26:04;72.60;;;32.53;;
12832;SDS011;6483;51.310;4.462;2022-12-04T00:28:35;66.07;;;30.00;;
12832;SDS011;6483;51.310;4.462;2022-12-04T00:31:09;65.33;;;28.10;;
12832;SDS011;6483;51.310;4.462;2022-12-04T00:33:43;70.10;;;29.10;;
12832;SDS011;6483;51.310;4.462;2022-12-04T00:36:16;71.07;;;30.47;;
12832;SDS011;6483;51.310;4.462;2022-12-04T00:38:43;72.90;;;31.60;;
12832;SDS011;6483;51.310;4.462;2022-12-04T00:41:11;67.90;;;29.80;;
12832;SDS011;6483;51.310;4.462;2022-12-04T00:43:39;67.87;;;27.77;;
12832;SDS011;6483;51.310;4.462;2022-12-04T00:46:06;66.60;;;28.80;;
12832;SDS011;6483;51.310;4.462;2022-12-04T00:48:35;69.47;;;29.80;;
12832;SDS011;6483;51.310;4.462;2022-12-04T00:51:06;61.23;;;27.90;;
12832;SDS011;6483;51.310;4.462;2022-12-04T00:53:34;65.67;;;29.10;;
12832;SDS011;6483;51.310;4.462;2022-12-04T00:56:04;66.30;;;28.77;;
12832;SDS011;6483;51.310;4.462;2022-12-04T00:58:33;68.07;;;28.43;;
12832;SDS011;6483;51.310;4.462;2022-12-04T01:01:07;64.17;;;28.83;;
12832;SDS011;6483;51.310;4.462;2022-12-04T01:03:35;74.33;;;29.23;;
12832;SDS011;6483;51.310;4.462;2022-12-04T01:06:02;66.77;;;28.37;;
12832;SDS011;6483;51.310;4.462;2022-12-04T01:08:29;68.43;;;30.40;;
12832;SDS011;6483;51.310;4.462;2022-12-04T01:10:54;72.40;;;29.07;;
12832;SDS011;6483;51.310;4.462;2022-12-04T01:13:21;71.37;;;29.07;;
12832;SDS011;6483;51.310;4.462;2022-12-04T01:15:48;68.03;;;28.83;;
12832;SDS011;6483;51.310;4.462;2022-12-04T01:18:14;74.63;;;30.47;;
12832;SDS011;6483;51.310;4.462;2022-12-04T01:20:45;70.37;;;30.60;;
12832;SDS011;6483;51.310;4.462;2022-12-04T01:23:12;79.13;;;31.27;;
12832;SDS011;6483;51.310;4.462;2022-12-04T01:25:48;69.43;;;29.33;;
12832;SDS011;6483;51.310;4.462;2022-12-04T01:28:34;72.70;;;30.13;;
12832;SDS011;6483;51.310;4.462;2022-12-04T01:31:16;70.87;;;30.73;;
12832;SDS011;6483;51.310;4.462;2022-12-04T01:33:44;76.67;;;30.37;;
12832;SDS011;6483;51.310;4.462;2022-12-04T01:36:18;69.40;;;29.53;;
12832;SDS011;6483;51.310;4.462;2022-12-04T01:38:46;69.57;;;29.33;;
12832;SDS011;6483;51.310;4.462;2022-12-04T01:41:13;65.53;;;28.67;;
12832;SDS011;6483;51.310;4.462;2022-12-04T01:43:41;69.43;;;29.37;;
12832;SDS011;6483;51.310;4.462;2022-12-04T01:46:07;70.20;;;30.37;;
12832;SDS011;6483;51.310;4.462;2022-12-04T01:48:43;78.33;;;30.43;;
12832;SDS011;6483;51.310;4.462;2022-12-04T01:51:35;69.50;;;29.07;;
12832;SDS011;6483;51.310;4.462;2022-12-04T01:54:06;82.27;;;32.07;;
12832;SDS011;6483;51.310;4.462;2022-12-04T01:56:39;81.03;;;32.20;;
12832;SDS011;6483;51.310;4.462;2022-12-04T01:59:25;72.30;;;29.93;;
12832;SDS011;6483;51.310;4.462;2022-12-04T02:01:56;70.37;;;30.27;;
12832;SDS011;6483;51.310;4.462;2022-12-04T02:04:27;76.70;;;32.00;;
12832;SDS011;6483;51.310;4.462;2022-12-04T02:06:59;75.43;;;30.40;;
12832;SDS011;6483;51.310;4.462;2022-12-04T02:09:24;74.17;;;30.87;;
12832;SDS011;6483;51.310;4.462;2022-12-04T02:11:57;70.00;;;29.17;;
12832;SDS011;6483;51.310;4.462;2022-12-04T02:17:48;76.53;;;30.17;;
12832;SDS011;6483;51.310;4.462;2022-12-04T02:31:17;73.27;;;31.30;;
12832;SDS011;6483;51.310;4.462;2022-12-04T02:33:53;72.27;;;30.83;;
12832;SDS011;6483;51.310;4.462;2022-12-04T02:36:26;69.23;;;31.40;;
12832;SDS011;6483;51.310;4.462;2022-12-04T02:41:44;73.57;;;31.20;;
12832;SDS011;6483;51.310;4.462;2022-12-04T02:44:23;75.30;;;30.97;;
12832;SDS011;6483;51.310;4.462;2022-12-04T02:47:11;65.27;;;28.90;;
12832;SDS011;6483;51.310;4.462;2022-12-04T02:49:43;80.47;;;33.07;;
12832;SDS011;6483;51.310;4.462;2022-12-04T02:52:31;71.50;;;31.23;;
12832;SDS011;6483;51.310;4.462;2022-12-04T02:55:21;71.03;;;32.03;;
12832;SDS011;6483;51.310;4.462;2022-12-04T02:57:54;79.53;;;32.27;;
12832;SDS011;6483;51.310;4.462;2022-12-04T03:00:23;65.43;;;28.93;;
12832;SDS011;6483;51.310;4.462;2022-12-04T03:02:58;69.00;;;29.03;;
12832;SDS011;6483;51.310;4.462;2022-12-04T03:05:57;74.20;;;31.63;;
12832;SDS011;6483;51.310;4.462;2022-12-04T03:08:40;69.27;;;29.67;;
12832;SDS011;6483;51.310;4.462;2022-12-04T03:11:10;69.07;;;30.00;;
12832;SDS011;6483;51.310;4.462;2022-12-04T03:16:31;71.60;;;29.93;;
12832;SDS011;6483;51.310;4.462;2022-12-04T03:19:14;75.13;;;30.63;;
12832;SDS011;6483;51.310;4.462;2022-12-04T03:22:07;69.00;;;29.43;;
12832;SDS011;6483;51.310;4.462;2022-12-04T03:24:38;67.87;;;31.60;;
12832;SDS011;6483;51.310;4.462;2022-12-04T03:29:41;66.40;;;30.03;;
12832;SDS011;6483;51.310;4.462;2022-12-04T03:35:04;70.17;;;30.67;;
12832;SDS011;6483;51.310;4.462;2022-12-04T03:40:42;72.10;;;30.20;;
12832;SDS011;6483;51.310;4.462;2022-12-04T03:43:32;70.77;;;31.33;;
12832;SDS011;6483;51.310;4.462;2022-12-04T03:46:07;65.10;;;30.03;;
12832;SDS011;6483;51.310;4.462;2022-12-04T03:48:50;66.60;;;29.77;;
12832;SDS011;6483;51.310;4.462;2022-12-04T03:54:31;70.00;;;29.80;;
12832;SDS011;6483;51.310;4.462;2022-12-04T03:57:02;72.17;;;30.93;;
12832;SDS011;6483;51.310;4.462;2022-12-04T03:59:54;69.17;;;30.73;;
12832;SDS011;6483;51.310;4.462;2022-12-04T04:02:31;70.03;;;30.60;;
12832;SDS011;6483;51.310;4.462;2022-12-04T04:05:05;68.80;;;31.00;;
12832;SDS011;6483;51.310;4.462;2022-12-04T04:07:51;66.00;;;30.10;;
12832;SDS011;6483;51.310;4.462;2022-12-04T04:10:41;72.93;;;30.23;;
12832;SDS011;6483;51.310;4.462;2022-12-04T04:13:08;65.27;;;29.90;;
12832;SDS011;6483;51.310;4.462;2022-12-04T04:15:59;67.77;;;30.93;;
12832;SDS011;6483;51.310;4.462;2022-12-04T04:18:50;61.07;;;29.60;;
12832;SDS011;6483;51.310;4.462;2022-12-04T04:21:36;67.20;;;29.90;;
12832;SDS011;6483;51.310;4.462;2022-12-04T04:27:13;63.47;;;28.30;;
12832;SDS011;6483;51.310;4.462;2022-12-04T04:29:39;67.20;;;31.10;;
12832;SDS011;6483;51.310;4.462;2022-12-04T04:32:18;74.10;;;31.37;;
12832;SDS011;6483;51.310;4.462;2022-12-04T04:38:35;70.13;;;30.10;;
12832;SDS011;6483;51.310;4.462;2022-12-04T04:43:55;68.67;;;30.23;;
12832;SDS011;6483;51.310;4.462;2022-12-04T04:46:47;61.00;;;28.27;;
12832;SDS011;6483;51.310;4.462;2022-12-04T04:49:17;61.87;;;30.23;;
12832;SDS011;6483;51.310;4.462;2022-12-04T04:51:47;67.77;;;31.37;;
12832;SDS011;6483;51.310;4.462;2022-12-04T04:54:15;66.90;;;28.70;;
12832;SDS011;6483;51.310;4.462;2022-12-04T04:56:42;68.43;;;30.17;;
12832;SDS011;6483;51.310;4.462;2022-12-04T04:59:11;61.20;;;29.20;;
12832;SDS011;6483;51.310;4.462;2022-12-04T05:01:38;62.73;;;28.83;;
12832;SDS011;6483;51.310;4.462;2022-12-04T05:04:05;64.77;;;29.57;;
12832;SDS011;6483;51.310;4.462;2022-12-04T05:06:35;67.57;;;30.70;;
12832;SDS011;6483;51.310;4.462;2022-12-04T05:09:00;71.80;;;32.53;;
12832;SDS011;6483;51.310;4.462;2022-12-04T05:11:27;65.20;;;30.47;;
12832;SDS011;6483;51.310;4.462;2022-12-04T05:13:53;64.53;;;31.30;;
12832;SDS011;6483;51.310;4.462;2022-12-04T05:16:18;64.07;;;30.63;;
12832;SDS011;6483;51.310;4.462;2022-12-04T05:18:48;62.07;;;30.70;;
12832;SDS011;6483;51.310;4.462;2022-12-04T05:21:33;65.37;;;30.70;;
12832;SDS011;6483;51.310;4.462;2022-12-04T05:23:59;64.40;;;30.37;;
12832;SDS011;6483;51.310;4.462;2022-12-04T05:26:28;64.83;;;31.10;;
12832;SDS011;6483;51.310;4.462;2022-12-04T05:28:54;63.77;;;29.13;;
12832;SDS011;6483;51.310;4.462;2022-12-04T05:31:19;64.17;;;30.93;;
12832;SDS011;6483;51.310;4.462;2022-12-04T05:33:48;67.27;;;29.67;;
12832;SDS011;6483;51.310;4.462;2022-12-04T05:36:19;62.10;;;29.23;;
12832;SDS011;6483;51.310;4.462;2022-12-04T05:38:45;67.00;;;31.70;;
12832;SDS011;6483;51.310;4.462;2022-12-04T05:41:13;69.93;;;31.23;;
12832;SDS011;6483;51.310;4.462;2022-12-04T05:43:39;66.87;;;28.97;;
12832;SDS011;6483;51.310;4.462;2022-12-04T05:46:06;61.47;;;30.90;;
12832;SDS011;6483;51.310;4.462;2022-12-04T05:48:32;67.27;;;31.47;;
12832;SDS011;6483;51.310;4.462;2022-12-04T05:51:04;61.63;;;30.17;;
12832;SDS011;6483;51.310;4.462;2022-12-04T05:53:31;62.33;;;30.97;;
12832;SDS011;6483;51.310;4.462;2022-12-04T05:55:57;60.80;;;30.10;;
12832;SDS011;6483;51.310;4.462;2022-12-04T05:58:25;64.70;;;32.17;;
12832;SDS011;6483;51.310;4.462;2022-12-04T06:00:53;68.50;;;31.50;;
12832;SDS011;6483;51.310;4.462;2022-12-04T06:03:23;66.93;;;31.80;;
12832;SDS011;6483;51.310;4.462;2022-12-04T06:05:49;67.33;;;32.93;;
12832;SDS011;6483;51.310;4.462;2022-12-04T06:08:15;67.93;;;32.00;;
12832;SDS011;6483;51.310;4.462;2022-12-04T06:10:40;74.60;;;32.90;;
12832;SDS011;6483;51.310;4.462;2022-12-04T06:13:06;63.37;;;31.03;;
12832;SDS011;6483;51.310;4.462;2022-12-04T06:15:37;64.47;;;30.20;;
12832;SDS011;6483;51.310;4.462;2022-12-04T06:18:09;68.73;;;31.23;;
12832;SDS011;6483;51.310;4.462;2022-12-04T06:20:38;69.33;;;31.07;;
12832;SDS011;6483;51.310;4.462;2022-12-04T06:23:03;67.97;;;32.30;;
12832;SDS011;6483;51.310;4.462;2022-12-04T06:25:32;66.60;;;31.33;;
12832;SDS011;6483;51.310;4.462;2022-12-04T06:28:01;63.87;;;31.27;;
12832;SDS011;6483;51.310;4.462;2022-12-04T06:30:27;62.53;;;29.93;;
12832;SDS011;6483;51.310;4.462;2022-12-04T06:32:54;74.97;;;33.70;;
12832;SDS011;6483;51.310;4.462;2022-12-04T06:35:23;69.33;;;33.67;;
12832;SDS011;6483;51.310;4.462;2022-12-04T06:37:51;59.10;;;29.20;;
12832;SDS011;6483;51.310;4.462;2022-12-04T06:40:17;66.67;;;31.60;;
12832;SDS011;6483;51.310;4.462;2022-12-04T06:42:49;61.50;;;32.77;;
12832;SDS011;6483;51.310;4.462;2022-12-04T06:45:14;66.23;;;32.37;;
12832;SDS011;6483;51.310;4.462;2022-12-04T06:47:40;70.60;;;31.80;;
12832;SDS011;6483;51.310;4.462;2022-12-04T06:50:06;69.47;;;32.50;;
12832;SDS011;6483;51.310;4.462;2022-12-04T06:52:33;69.93;;;32.13;;
12832;SDS011;6483;51.310;4.462;2022-12-04T06:54:59;75.87;;;32.97;;
12832;SDS011;6483;51.310;4.462;2022-12-04T06:57:25;67.10;;;31.30;;
12832;SDS011;6483;51.310;4.462;2022-12-04T06:59:53;72.70;;;30.73;;
12832;SDS011;6483;51.310;4.462;2022-12-04T07:02:20;67.20;;;30.70;;
12832;SDS011;6483;51.310;4.462;2022-12-04T07:04:52;69.30;;;32.30;;
12832;SDS011;6483;51.310;4.462;2022-12-04T07:07:21;72.70;;;33.77;;
12832;SDS011;6483;51.310;4.462;2022-12-04T07:09:47;68.53;;;31.97;;
12832;SDS011;6483;51.310;4.462;2022-12-04T07:12:16;60.83;;;31.73;;
12832;SDS011;6483;51.310;4.462;2022-12-04T07:14:42;65.60;;;31.77;;
12832;SDS011;6483;51.310;4.462;2022-12-04T07:17:07;73.17;;;33.77;;
12832;SDS011;6483;51.310;4.462;2022-12-04T07:19:35;68.03;;;31.80;;
12832;SDS011;6483;51.310;4.462;2022-12-04T07:22:02;63.20;;;31.73;;
12832;SDS011;6483;51.310;4.462;2022-12-04T07:24:33;71.10;;;31.77;;
12832;SDS011;6483;51.310;4.462;2022-12-04T07:27:02;70.03;;;33.70;;
12832;SDS011;6483;51.310;4.462;2022-12-04T07:29:28;68.67;;;33.80;;
12832;SDS011;6483;51.310;4.462;2022-12-04T07:31:55;71.77;;;34.30;;
12832;SDS011;6483;51.310;4.462;2022-12-04T07:34:23;65.97;;;31.83;;
12832;SDS011;6483;51.310;4.462;2022-12-04T07:36:50;67.83;;;31.90;;
12832;SDS011;6483;51.310;4.462;2022-12-04T07:39:16;65.37;;;30.90;;
12832;SDS011;6483;51.310;4.462;2022-12-04T07:41:48;65.53;;;31.50;;
12832;SDS011;6483;51.310;4.462;2022-12-04T07:44:16;66.83;;;31.93;;
12832;SDS011;6483;51.310;4.462;2022-12-04T07:46:42;69.43;;;31.83;;
12832;SDS011;6483;51.310;4.462;2022-12-04T07:49:08;62.97;;;31.80;;
12832;SDS011;6483;51.310;4.462;2022-12-04T07:51:36;72.73;;;33.90;;
12832;SDS011;6483;51.310;4.462;2022-12-04T07:54:05;66.43;;;32.23;;
12832;SDS011;6483;51.310;4.462;2022-12-04T07:56:33;64.03;;;32.83;;
12832;SDS011;6483;51.310;4.462;2022-12-04T07:58:59;67.43;;;32.27;;
12832;SDS011;6483;51.310;4.462;2022-12-04T08:01:28;68.40;;;33.13;;
12832;SDS011;6483;51.310;4.462;2022-12-04T08:03:56;69.43;;;32.63;;
12832;SDS011;6483;51.310;4.462;2022-12-04T08:06:23;69.67;;;34.00;;
12832;SDS011;6483;51.310;4.462;2022-12-04T08:08:53;75.67;;;34.70;;
12832;SDS011;6483;51.310;4.462;2022-12-04T08:11:22;68.27;;;32.70;;
12832;SDS011;6483;51.310;4.462;2022-12-04T08:13:54;69.40;;;33.93;;
12832;SDS011;6483;51.310;4.462;2022-12-04T08:16:30;70.63;;;32.43;;
12832;SDS011;6483;51.310;4.462;2022-12-04T08:18:57;67.13;;;32.50;;
12832;SDS011;6483;51.310;4.462;2022-12-04T08:21:24;70.60;;;33.53;;
12832;SDS011;6483;51.310;4.462;2022-12-04T08:23:52;70.67;;;33.67;;
12832;SDS011;6483;51.310;4.462;2022-12-04T08:26:20;67.70;;;33.47;;
12832;SDS011;6483;51.310;4.462;2022-12-04T08:28:48;71.50;;;34.83;;
12832;SDS011;6483;51.310;4.462;2022-12-04T08:31:20;72.20;;;34.93;;
12832;SDS011;6483;51.310;4.462;2022-12-04T08:33:52;66.90;;;32.37;;
12832;SDS011;6483;51.310;4.462;2022-12-04T08:36:19;68.80;;;32.03;;
12832;SDS011;6483;51.310;4.462;2022-12-04T08:38:48;66.40;;;32.10;;
12832;SDS011;6483;51.310;4.462;2022-12-04T08:41:16;66.73;;;33.70;;
12832;SDS011;6483;51.310;4.462;2022-12-04T08:43:46;76.17;;;34.43;;
12832;SDS011;6483;51.310;4.462;2022-12-04T08:46:13;69.43;;;33.50;;
12832;SDS011;6483;51.310;4.462;2022-12-04T08:48:43;76.27;;;35.87;;
12832;SDS011;6483;51.310;4.462;2022-12-04T08:51:11;69.63;;;33.33;;
12832;SDS011;6483;51.310;4.462;2022-12-04T08:53:42;70.83;;;34.00;;
12832;SDS011;6483;51.310;4.462;2022-12-04T08:56:08;67.57;;;33.17;;
12832;SDS011;6483;51.310;4.462;2022-12-04T08:58:41;70.17;;;33.63;;
12832;SDS011;6483;51.310;4.462;2022-12-04T09:01:08;71.33;;;33.13;;
12832;SDS011;6483;51.310;4.462;2022-12-04T09:03:43;69.27;;;32.93;;
12832;SDS011;6483;51.310;4.462;2022-12-04T09:06:11;69.83;;;35.77;;
12832;SDS011;6483;51.310;4.462;2022-12-04T09:08:42;72.07;;;34.77;;
12832;SDS011;6483;51.310;4.462;2022-12-04T09:13:42;76.43;;;35.87;;
12832;SDS011;6483;51.310;4.462;2022-12-04T09:16:10;69.70;;;34.43;;
12832;SDS011;6483;51.310;4.462;2022-12-04T09:18:37;72.10;;;33.80;;
12832;SDS011;6483;51.310;4.462;2022-12-04T09:21:04;71.10;;;34.87;;
12832;SDS011;6483;51.310;4.462;2022-12-04T09:23:32;71.00;;;33.83;;
12832;SDS011;6483;51.310;4.462;2022-12-04T09:25:58;74.47;;;35.33;;
12832;SDS011;6483;51.310;4.462;2022-12-04T09:28:27;70.60;;;35.10;;
12832;SDS011;6483;51.310;4.462;2022-12-04T09:31:00;65.20;;;33.03;;
12832;SDS011;6483;51.310;4.462;2022-12-04T09:33:31;65.97;;;33.17;;
12832;SDS011;6483;51.310;4.462;2022-12-04T09:36:00;66.40;;;34.53;;
12832;SDS011;6483;51.310;4.462;2022-12-04T09:38:29;71.20;;;36.47;;
12832;SDS011;6483;51.310;4.462;2022-12-04T09:41:01;67.07;;;33.33;;
12832;SDS011;6483;51.310;4.462;2022-12-04T09:43:43;73.07;;;36.70;;
12832;SDS011;6483;51.310;4.462;2022-12-04T09:46:19;64.20;;;31.97;;
12832;SDS011;6483;51.310;4.462;2022-12-04T09:48:56;60.17;;;32.13;;
12832;SDS011;6483;51.310;4.462;2022-12-04T09:51:25;65.73;;;32.57;;
12832;SDS011;6483;51.310;4.462;2022-12-04T09:54:02;69.40;;;32.47;;
12832;SDS011;6483;51.310;4.462;2022-12-04T09:57:01;64.07;;;33.73;;
12832;SDS011;6483;51.310;4.462;2022-12-04T09:59:39;60.70;;;32.47;;
12832;SDS011;6483;51.310;4.462;2022-12-04T10:02:27;64.03;;;32.17;;
12832;SDS011;6483;51.310;4.462;2022-12-04T10:05:00;59.73;;;32.70;;
12832;SDS011;6483;51.310;4.462;2022-12-04T10:07:33;63.13;;;32.53;;
12832;SDS011;6483;51.310;4.462;2022-12-04T10:10:12;61.63;;;30.70;;
12832;SDS011;6483;51.310;4.462;2022-12-04T10:21:09;55.27;;;28.03;;
12832;SDS011;6483;51.310;4.462;2022-12-04T10:24:16;60.40;;;32.80;;
12832;SDS011;6483;51.310;4.462;2022-12-04T10:27:11;60.37;;;30.50;;
12832;SDS011;6483;51.310;4.462;2022-12-04T10:30:21;57.80;;;31.03;;
12832;SDS011;6483;51.310;4.462;2022-12-04T10:32:59;57.30;;;29.47;;
12832;SDS011;6483;51.310;4.462;2022-12-04T10:35:50;57.00;;;30.47;;
12832;SDS011;6483;51.310;4.462;2022-12-04T10:44:12;47.57;;;27.63;;
12832;SDS011;6483;51.310;4.462;2022-12-04T10:46:40;57.27;;;30.20;;
12832;SDS011;6483;51.310;4.462;2022-12-04T10:51:52;52.40;;;29.53;;
12832;SDS011;6483;51.310;4.462;2022-12-04T10:54:44;51.63;;;29.00;;
12832;SDS011;6483;51.310;4.462;2022-12-04T10:57:13;47.00;;;27.97;;
12832;SDS011;6483;51.310;4.462;2022-12-04T10:59:50;46.93;;;26.93;;
12832;SDS011;6483;51.310;4.462;2022-12-04T11:02:22;55.43;;;29.33;;
12832;SDS011;6483;51.310;4.462;2022-12-04T11:07:33;49.80;;;27.40;;
12832;SDS011;6483;51.310;4.462;2022-12-04T11:10:16;48.37;;;27.00;;
12832;SDS011;6483;51.310;4.462;2022-12-04T11:13:00;46.33;;;26.73;;
12832;SDS011;6483;51.310;4.462;2022-12-04T11:15:28;49.17;;;28.43;;
12832;SDS011;6483;51.310;4.462;2022-12-04T11:18:31;47.07;;;26.77;;
12832;SDS011;6483;51.310;4.462;2022-12-04T11:21:03;43.33;;;24.17;;
12832;SDS011;6483;51.310;4.462;2022-12-04T11:23:54;44.77;;;24.83;;
12832;SDS011;6483;51.310;4.462;2022-12-04T11:26:43;48.37;;;26.00;;
12832;SDS011;6483;51.310;4.462;2022-12-04T11:29:12;43.60;;;25.43;;
12832;SDS011;6483;51.310;4.462;2022-12-04T11:31:47;39.27;;;23.70;;
12832;SDS011;6483;51.310;4.462;2022-12-04T11:34:20;41.47;;;24.23;;
12832;SDS011;6483;51.310;4.462;2022-12-04T11:36:58;37.17;;;21.97;;
12832;SDS011;6483;51.310;4.462;2022-12-04T11:39:32;35.97;;;20.97;;
12832;SDS011;6483;51.310;4.462;2022-12-04T11:42:02;36.10;;;20.80;;
12832;SDS011;6483;51.310;4.462;2022-12-04T11:44:31;36.43;;;20.73;;
12832;SDS011;6483;51.310;4.462;2022-12-04T11:47:00;29.03;;;17.17;;
12832;SDS011;6483;51.310;4.462;2022-12-04T11:49:31;30.63;;;17.93;;
12832;SDS011;6483;51.310;4.462;2022-12-04T11:52:06;28.30;;;16.00;;
12832;SDS011;6483;51.310;4.462;2022-12-04T11:57:32;27.77;;;15.53;;
12832;SDS011;6483;51.310;4.462;2022-12-04T12:12:16;32.70;;;19.10;;
12832;SDS011;6483;51.310;4.462;2022-12-04T12:26:10;28.63;;;15.80;;
12832;SDS011;6483;51.310;4.462;2022-12-04T12:34:36;27.57;;;15.83;;
12832;SDS011;6483;51.310;4.462;2022-12-04T12:37:01;31.20;;;16.73;;
12832;SDS011;6483;51.310;4.462;2022-12-04T12:39:40;35.93;;;17.40;;
12832;SDS011;6483;51.310;4.462;2022-12-04T12:42:47;28.53;;;16.27;;
12832;SDS011;6483;51.310;4.462;2022-12-04T12:45:21;31.53;;;17.40;;
12832;SDS011;6483;51.310;4.462;2022-12-04T12:47:53;31.77;;;16.67;;
12832;SDS011;6483;51.310;4.462;2022-12-04T12:50:21;31.67;;;17.47;;
12832;SDS011;6483;51.310;4.462;2022-12-04T12:52:57;30.90;;;17.50;;
12832;SDS011;6483;51.310;4.462;2022-12-04T12:55:35;31.97;;;17.37;;
12832;SDS011;6483;51.310;4.462;2022-12-04T13:04:30;31.90;;;18.27;;
12832;SDS011;6483;51.310;4.462;2022-12-04T13:07:26;34.53;;;17.17;;
12832;SDS011;6483;51.310;4.462;2022-12-04T13:15:21;31.37;;;18.07;;
12832;SDS011;6483;51.310;4.462;2022-12-04T13:17:53;28.37;;;16.70;;
12832;SDS011;6483;51.310;4.462;2022-12-04T13:20:30;28.77;;;17.03;;
12832;SDS011;6483;51.310;4.462;2022-12-04T13:28:52;39.90;;;20.63;;
12832;SDS011;6483;51.310;4.462;2022-12-04T13:34:10;36.60;;;20.40;;
12832;SDS011;6483;51.310;4.462;2022-12-04T13:42:31;36.90;;;20.23;;
12832;SDS011;6483;51.310;4.462;2022-12-04T13:45:10;33.67;;;19.60;;
12832;SDS011;6483;51.310;4.462;2022-12-04T13:47:55;31.23;;;17.37;;
12832;SDS011;6483;51.310;4.462;2022-12-04T13:50:30;29.33;;;16.80;;
12832;SDS011;6483;51.310;4.462;2022-12-04T13:52:58;35.03;;;18.13;;
12832;SDS011;6483;51.310;4.462;2022-12-04T13:55:37;34.33;;;17.93;;
12832;SDS011;6483;51.310;4.462;2022-12-04T13:58:22;31.50;;;17.77;;
12832;SDS011;6483;51.310;4.462;2022-12-04T14:01:20;29.77;;;16.17;;
12832;SDS011;6483;51.310;4.462;2022-12-04T14:03:50;31.93;;;17.53;;
12832;SDS011;6483;51.310;4.462;2022-12-04T14:12:05;30.57;;;17.47;;
12832;SDS011;6483;51.310;4.462;2022-12-04T14:14:36;33.33;;;18.40;;
12832;SDS011;6483;51.310;4.462;2022-12-04T14:17:16;33.33;;;18.40;;
12832;SDS011;6483;51.310;4.462;2022-12-04T14:19:44;41.77;;;23.00;;
12832;SDS011;6483;51.310;4.462;2022-12-04T14:27:46;49.57;;;28.00;;
12832;SDS011;6483;51.310;4.462;2022-12-04T14:32:49;33.67;;;18.93;;
12832;SDS011;6483;51.310;4.462;2022-12-04T14:35:19;31.70;;;19.40;;
12832;SDS011;6483;51.310;4.462;2022-12-04T14:37:57;36.80;;;18.90;;
12832;SDS011;6483;51.310;4.462;2022-12-04T14:40:30;42.50;;;20.20;;
12832;SDS011;6483;51.310;4.462;2022-12-04T14:43:22;36.50;;;19.20;;
12832;SDS011;6483;51.310;4.462;2022-12-04T14:49:15;61.40;;;24.57;;
12832;SDS011;6483;51.310;4.462;2022-12-04T14:57:54;32.57;;;18.10;;
12832;SDS011;6483;51.310;4.462;2022-12-04T15:00:24;35.93;;;18.97;;
12832;SDS011;6483;51.310;4.462;2022-12-04T15:02:59;35.07;;;18.87;;
12832;SDS011;6483;51.310;4.462;2022-12-04T15:05:30;35.23;;;18.17;;
12832;SDS011;6483;51.310;4.462;2022-12-04T15:08:01;39.07;;;19.50;;
12832;SDS011;6483;51.310;4.462;2022-12-04T15:10:31;34.07;;;18.57;;
12832;SDS011;6483;51.310;4.462;2022-12-04T15:13:30;36.37;;;19.80;;
12832;SDS011;6483;51.310;4.462;2022-12-04T15:15:57;42.77;;;22.90;;
12832;SDS011;6483;51.310;4.462;2022-12-04T15:18:58;39.03;;;23.27;;
12832;SDS011;6483;51.310;4.462;2022-12-04T15:21:46;38.23;;;21.90;;
12832;SDS011;6483;51.310;4.462;2022-12-04T15:24:17;33.47;;;18.50;;
12832;SDS011;6483;51.310;4.462;2022-12-04T15:26:44;36.80;;;19.83;;
12832;SDS011;6483;51.310;4.462;2022-12-04T15:29:21;45.80;;;23.83;;
12832;SDS011;6483;51.310;4.462;2022-12-04T15:31:52;35.87;;;19.83;;
12832;SDS011;6483;51.310;4.462;2022-12-04T15:37:22;33.70;;;18.30;;
12832;SDS011;6483;51.310;4.462;2022-12-04T15:39:54;36.03;;;19.47;;
12832;SDS011;6483;51.310;4.462;2022-12-04T15:42:25;48.23;;;24.87;;
12832;SDS011;6483;51.310;4.462;2022-12-04T15:44:56;50.47;;;25.40;;
12832;SDS011;6483;51.310;4.462;2022-12-04T15:47:26;34.90;;;20.53;;
12832;SDS011;6483;51.310;4.462;2022-12-04T15:50:06;46.53;;;22.63;;
12832;SDS011;6483;51.310;4.462;2022-12-04T15:55:56;38.20;;;19.87;;
12832;SDS011;6483;51.310;4.462;2022-12-04T15:58:32;36.20;;;20.53;;
12832;SDS011;6483;51.310;4.462;2022-12-04T16:01:06;46.37;;;22.93;;
12832;SDS011;6483;51.310;4.462;2022-12-04T16:06:28;31.67;;;18.80;;
12832;SDS011;6483;51.310;4.462;2022-12-04T16:09:21;32.83;;;19.63;;
12832;SDS011;6483;51.310;4.462;2022-12-04T16:11:55;33.80;;;19.40;;
12832;SDS011;6483;51.310;4.462;2022-12-04T16:14:27;33.67;;;18.83;;
12832;SDS011;6483;51.310;4.462;2022-12-04T16:16:56;36.67;;;19.73;;
12832;SDS011;6483;51.310;4.462;2022-12-04T16:19:30;28.07;;;17.73;;
12832;SDS011;6483;51.310;4.462;2022-12-04T16:21:58;31.60;;;19.23;;
12832;SDS011;6483;51.310;4.462;2022-12-04T16:24:28;29.73;;;18.43;;
12832;SDS011;6483;51.310;4.462;2022-12-04T16:26:54;34.63;;;19.93;;
12832;SDS011;6483;51.310;4.462;2022-12-04T16:29:21;34.80;;;20.03;;
12832;SDS011;6483;51.310;4.462;2022-12-04T16:31:48;33.27;;;20.17;;
12832;SDS011;6483;51.310;4.462;2022-12-04T16:34:14;34.40;;;19.77;;
12832;SDS011;6483;51.310;4.462;2022-12-04T16:36:41;29.50;;;19.00;;
12832;SDS011;6483;51.310;4.462;2022-12-04T16:39:07;34.77;;;21.13;;
12832;SDS011;6483;51.310;4.462;2022-12-04T16:41:33;33.90;;;20.07;;
12832;SDS011;6483;51.310;4.462;2022-12-04T16:44:00;31.97;;;18.17;;
12832;SDS011;6483;51.310;4.462;2022-12-04T16:46:26;36.57;;;20.97;;
12832;SDS011;6483;51.310;4.462;2022-12-04T16:48:54;32.17;;;18.93;;
12832;SDS011;6483;51.310;4.462;2022-12-04T16:51:21;26.27;;;17.63;;
12832;SDS011;6483;51.310;4.462;2022-12-04T16:53:51;30.93;;;18.40;;
12832;SDS011;6483;51.310;4.462;2022-12-04T16:56:18;30.03;;;18.60;;
12832;SDS011;6483;51.310;4.462;2022-12-04T16:58:45;29.57;;;17.73;;
12832;SDS011;6483;51.310;4.462;2022-12-04T17:01:32;30.87;;;17.97;;
12832;SDS011;6483;51.310;4.462;2022-12-04T17:04:04;30.87;;;18.90;;
12832;SDS011;6483;51.310;4.462;2022-12-04T17:06:30;36.80;;;21.73;;
12832;SDS011;6483;51.310;4.462;2022-12-04T17:08:57;34.97;;;20.77;;
12832;SDS011;6483;51.310;4.462;2022-12-04T17:11:23;31.53;;;18.47;;
12832;SDS011;6483;51.310;4.462;2022-12-04T17:14:07;34.60;;;20.83;;
12832;SDS011;6483;51.310;4.462;2022-12-04T17:16:34;31.27;;;20.47;;
12832;SDS011;6483;51.310;4.462;2022-12-04T17:19:02;59.23;;;33.93;;
12832;SDS011;6483;51.310;4.462;2022-12-04T17:21:28;36.13;;;21.83;;
12832;SDS011;6483;51.310;4.462;2022-12-04T17:23:55;31.90;;;20.03;;
12832;SDS011;6483;51.310;4.462;2022-12-04T17:26:24;38.80;;;24.33;;
12832;SDS011;6483;51.310;4.462;2022-12-04T17:28:52;33.47;;;20.83;;
12832;SDS011;6483;51.310;4.462;2022-12-04T17:31:22;32.10;;;20.17;;
12832;SDS011;6483;51.310;4.462;2022-12-04T17:33:50;34.67;;;21.00;;
12832;SDS011;6483;51.310;4.462;2022-12-04T17:36:18;28.37;;;18.80;;
12832;SDS011;6483;51.310;4.462;2022-12-04T17:38:45;30.20;;;19.27;;